Time;durP1;ratioP1;P1;durP2;ratioP2;P2;SDS_P1;SDS_P2;PMS_P1;PMS_P2;Temp;Humidity;BMP_temperature;BMP_pressure;BME280_temperature;BME280_humidity;BME280_pressure;Samples;Min_cycle;Max_cycle;Signal;HPM_P1;HPM_P2
2023/08/14 00:01:17;;;;;;;0.55;0.55;;;;;;;;;;5091128;28;20131;-85
2023/08/14 00:03:43;;;;;;;0.82;0.70;;;;;;;;;;5090885;28;20438;-84
2023/08/14 00:06:08;;;;;;;1.15;0.95;;;;;;;;;;5091728;28;20068;-84
2023/08/14 00:08:33;;;;;;;2.30;1.00;;;;;;;;;;5091100;28;20020;-84
2023/08/14 00:10:59;;;;;;;1.00;0.75;;;;;;;;;;5090489;28;20031;-85
2023/08/14 00:13:24;;;;;;;0.82;0.55;;;;;;;;;;5089701;28;20712;-85
2023/08/14 00:15:50;;;;;;;1.17;0.80;;;;;;;;;;5090837;28;20028;-84
2023/08/14 00:18:16;;;;;;;0.93;0.80;;;;;;;;;;5089150;28;20052;-83
2023/08/14 00:20:42;;;;;;;1.15;0.90;;;;;;;;;;5089618;28;20036;-85
2023/08/14 00:23:07;;;;;;;0.88;0.80;;;;;;;;;;5089943;28;20031;-85
2023/08/14 00:25:32;;;;;;;1.02;0.93;;;;;;;;;;5090669;28;20024;-85
2023/08/14 00:27:58;;;;;;;0.73;0.50;;;;;;;;;;5090393;28;20054;-85
2023/08/14 00:30:23;;;;;;;2.65;1.00;;;;;;;;;;5090304;28;20035;-84
2023/08/14 00:32:49;;;;;;;0.73;0.63;;;;;;;;;;5088265;28;20039;-85
2023/08/14 00:35:15;;;;;;;0.55;0.45;;;;;;;;;;5089736;28;20047;-85
2023/08/14 00:37:44;;;;;;;1.40;1.10;;;;;;;;;;5089629;28;20130;-86
2023/08/14 00:40:11;;;;;;;1.92;0.95;;;;;;;;;;5088116;28;20510;-85
2023/08/14 00:42:42;;;;;;;0.98;0.82;;;;;;;;;;5090444;28;20428;-83
2023/08/14 00:45:09;;;;;;;0.93;0.75;;;;;;;;;;5089532;28;20440;-85
2023/08/14 00:47:35;;;;;;;0.80;0.63;;;;;;;;;;5087778;28;20059;-83
2023/08/14 00:50:06;;;;;;;1.17;0.73;;;;;;;;;;5090386;28;20051;-84
2023/08/14 00:52:35;;;;;;;0.95;0.73;;;;;;;;;;5090102;28;20024;-85
2023/08/14 00:55:11;;;;;;;1.05;0.90;;;;;;;;;;5090184;28;20055;-83
2023/08/14 00:57:38;;;;;;;1.70;0.88;;;;;;;;;;5091566;28;20030;-83
2023/08/14 01:00:05;;;;;;;0.88;0.70;;;;;;;;;;5091631;28;20027;-85
2023/08/14 01:02:31;;;;;;;1.17;0.90;;;;;;;;;;5092978;28;20024;-84
2023/08/14 01:04:56;;;;;;;1.55;0.68;;;;;;;;;;5093772;28;20024;-83
2023/08/14 01:07:24;;;;;;;1.65;0.77;;;;;;;;;;5093632;28;20024;-84
2023/08/14 01:09:50;;;;;;;1.70;0.82;;;;;;;;;;5093501;28;20102;-85
2023/08/14 01:12:47;;;;;;;1.52;0.90;;;;;;;;;;5092979;28;20692;-84
2023/08/14 01:15:17;;;;;;;1.08;0.70;;;;;;;;;;5093710;28;20016;-85
2023/08/14 01:17:56;;;;;;;1.17;0.88;;;;;;;;;;5093576;28;20072;-83
2023/08/14 01:20:26;;;;;;;0.73;0.65;;;;;;;;;;5093482;28;20528;-84
2023/08/14 01:23:32;;;;;;;1.27;0.75;;;;;;;;;;5092472;28;20047;-84
2023/08/14 01:25:58;;;;;;;0.73;0.73;;;;;;;;;;5092161;28;20023;-86
2023/08/14 01:28:24;;;;;;;1.23;0.82;;;;;;;;;;5092508;28;20055;-84
2023/08/14 01:30:49;;;;;;;1.80;0.47;;;;;;;;;;5093087;28;20155;-85
2023/08/14 01:33:15;;;;;;;1.10;0.93;;;;;;;;;;5092568;28;20024;-84
2023/08/14 01:35:51;;;;;;;1.25;0.75;;;;;;;;;;5093570;28;20066;-84
2023/08/14 01:38:26;;;;;;;2.05;1.20;;;;;;;;;;5092719;28;20056;-86
2023/08/14 01:41:03;;;;;;;1.08;0.98;;;;;;;;;;5093280;28;20523;-83
2023/08/14 01:43:36;;;;;;;1.55;1.15;;;;;;;;;;5093046;28;20039;-86
2023/08/14 01:46:03;;;;;;;0.80;0.73;;;;;;;;;;5092633;28;20065;-84
2023/08/14 01:48:29;;;;;;;1.40;1.17;;;;;;;;;;5093694;28;20024;-85
2023/08/14 01:50:55;;;;;;;1.20;0.93;;;;;;;;;;5092883;28;20460;-85
2023/08/14 01:53:21;;;;;;;1.02;0.88;;;;;;;;;;5091779;28;20035;-84
2023/08/14 01:55:47;;;;;;;0.68;0.68;;;;;;;;;;5092967;28;20042;-85
2023/08/14 01:58:12;;;;;;;2.05;1.30;;;;;;;;;;5093103;28;20102;-84
2023/08/14 02:00:38;;;;;;;0.95;0.70;;;;;;;;;;5091219;28;20031;-86
2023/08/14 02:03:04;;;;;;;3.63;0.85;;;;;;;;;;5092368;28;20495;-85
2023/08/14 02:05:29;;;;;;;0.75;0.52;;;;;;;;;;5092958;28;20020;-85
2023/08/14 02:07:55;;;;;;;0.65;0.60;;;;;;;;;;5092342;28;20020;-85
2023/08/14 02:10:21;;;;;;;1.75;0.90;;;;;;;;;;5089640;28;20023;-86
2023/08/14 02:12:46;;;;;;;1.20;0.88;;;;;;;;;;5092368;28;20028;-85
2023/08/14 02:15:12;;;;;;;1.92;0.85;;;;;;;;;;5092295;28;20475;-85
2023/08/14 02:17:38;;;;;;;1.38;1.08;;;;;;;;;;5092413;28;20048;-85
2023/08/14 02:20:04;;;;;;;1.25;0.88;;;;;;;;;;5091903;28;20028;-84
2023/08/14 02:22:29;;;;;;;1.65;1.27;;;;;;;;;;5090308;28;20034;-84
2023/08/14 02:24:55;;;;;;;1.15;0.85;;;;;;;;;;5092137;28;20019;-83
2023/08/14 02:27:20;;;;;;;1.10;0.98;;;;;;;;;;5092212;28;20055;-85
2023/08/14 02:29:46;;;;;;;2.05;1.25;;;;;;;;;;5092053;28;20030;-85
2023/08/14 02:32:11;;;;;;;1.27;0.80;;;;;;;;;;5090634;28;20127;-83
2023/08/14 02:34:48;;;;;;;1.60;1.10;;;;;;;;;;5092238;28;20020;-84
2023/08/14 02:37:15;;;;;;;1.60;1.10;;;;;;;;;;5090390;28;20440;-85
2023/08/14 02:39:40;;;;;;;1.55;1.00;;;;;;;;;;5090595;28;20032;-84
2023/08/14 02:42:06;;;;;;;1.73;0.82;;;;;;;;;;5091159;28;20353;-84
2023/08/14 02:44:32;;;;;;;0.93;0.88;;;;;;;;;;5092183;28;20020;-86
2023/08/14 02:46:58;;;;;;;0.60;0.60;;;;;;;;;;5092166;28;20080;-84
2023/08/14 02:49:23;;;;;;;1.30;0.85;;;;;;;;;;5091671;28;20494;-84
2023/08/14 02:51:49;;;;;;;2.40;1.10;;;;;;;;;;5091249;28;20024;-83
2023/08/14 02:54:14;;;;;;;2.50;1.25;;;;;;;;;;5091640;28;20038;-85
2023/08/14 02:56:40;;;;;;;0.60;0.60;;;;;;;;;;5092188;28;20107;-84
2023/08/14 02:59:05;;;;;;;0.68;0.68;;;;;;;;;;5090237;28;20028;-85
2023/08/14 03:01:30;;;;;;;1.25;0.93;;;;;;;;;;5089893;28;20024;-85
2023/08/14 03:03:56;;;;;;;1.10;0.95;;;;;;;;;;5091499;28;20134;-85
2023/08/14 03:06:21;;;;;;;0.68;0.60;;;;;;;;;;5090692;28;20099;-85
2023/08/14 03:08:48;;;;;;;0.93;0.88;;;;;;;;;;5090283;28;20490;-84
2023/08/14 03:11:14;;;;;;;0.98;0.63;;;;;;;;;;5089167;28;20517;-84
2023/08/14 03:13:39;;;;;;;1.02;0.90;;;;;;;;;;5087575;28;20031;-85
2023/08/14 03:16:08;;;;;;;6.47;1.40;;;;;;;;;;5091255;28;20023;-85
2023/08/14 03:18:33;;;;;;;0.98;0.82;;;;;;;;;;5091031;28;20051;-85
2023/08/14 03:20:59;;;;;;;0.82;0.75;;;;;;;;;;5091075;28;20017;-84
2023/08/14 03:23:24;;;;;;;0.70;0.70;;;;;;;;;;5088389;28;20028;-83
2023/08/14 03:25:50;;;;;;;1.70;1.13;;;;;;;;;;5090995;28;20055;-86
2023/08/14 03:28:15;;;;;;;0.80;0.70;;;;;;;;;;5091508;28;20035;-86
2023/08/14 03:30:41;;;;;;;1.23;0.63;;;;;;;;;;5091815;28;20089;-85
2023/08/14 03:33:07;;;;;;;1.77;0.98;;;;;;;;;;5090722;28;20107;-87
2023/08/14 03:35:32;;;;;;;3.92;1.00;;;;;;;;;;5091142;28;20110;-84
2023/08/14 03:37:58;;;;;;;3.25;1.17;;;;;;;;;;5087962;28;20024;-86
2023/08/14 03:40:23;;;;;;;1.05;0.95;;;;;;;;;;5090374;28;20476;-84
2023/08/14 03:42:48;;;;;;;0.82;0.75;;;;;;;;;;5089156;28;20028;-85
2023/08/14 03:45:14;;;;;;;1.85;1.27;;;;;;;;;;5091088;28;20028;-86
2023/08/14 03:47:39;;;;;;;1.75;1.35;;;;;;;;;;5089653;28;20619;-87
2023/08/14 03:50:05;;;;;;;2.28;1.52;;;;;;;;;;5089657;28;20024;-87
2023/08/14 03:52:31;;;;;;;1.35;1.23;;;;;;;;;;5089641;28;20027;-84
2023/08/14 03:54:56;;;;;;;1.38;1.25;;;;;;;;;;5089448;28;20028;-85
2023/08/14 03:57:22;;;;;;;1.38;1.05;;;;;;;;;;5089792;28;20499;-86
2023/08/14 03:59:47;;;;;;;1.75;1.10;;;;;;;;;;5090419;28;20375;-86
2023/08/14 04:02:13;;;;;;;0.82;0.80;;;;;;;;;;5089753;28;20024;-86
2023/08/14 04:04:38;;;;;;;2.08;1.27;;;;;;;;;;5090863;28;20020;-86
2023/08/14 04:07:04;;;;;;;1.30;0.82;;;;;;;;;;5089979;28;20028;-85
2023/08/14 04:09:29;;;;;;;1.33;0.95;;;;;;;;;;5090943;28;20442;-85
2023/08/14 04:11:55;;;;;;;1.33;0.93;;;;;;;;;;5089631;28;20020;-86
2023/08/14 04:14:20;;;;;;;1.65;1.33;;;;;;;;;;5091290;28;20066;-86
2023/08/14 04:16:46;;;;;;;1.38;1.20;;;;;;;;;;5090804;28;20102;-86
2023/08/14 04:19:16;;;;;;;1.38;1.05;;;;;;;;;;5090666;28;20060;-85
2023/08/14 04:21:43;;;;;;;1.48;0.90;;;;;;;;;;5090314;28;20059;-86
2023/08/14 04:24:09;;;;;;;1.25;1.15;;;;;;;;;;5090641;28;20467;-87
2023/08/14 04:26:36;;;;;;;1.35;1.08;;;;;;;;;;5088542;28;20024;-86
2023/08/14 04:29:04;;;;;;;3.28;1.27;;;;;;;;;;5088970;28;20111;-84
2023/08/14 04:31:30;;;;;;;1.50;0.88;;;;;;;;;;5091181;28;20020;-85
2023/08/14 04:33:55;;;;;;;1.98;1.55;;;;;;;;;;5094503;28;20028;-86
2023/08/14 04:36:21;;;;;;;0.85;0.85;;;;;;;;;;5091017;28;20077;-85
2023/08/14 04:38:47;;;;;;;1.52;1.05;;;;;;;;;;5094142;28;20028;-87
2023/08/14 04:41:12;;;;;;;7.07;1.42;;;;;;;;;;5093604;28;20165;-86
2023/08/14 04:43:38;;;;;;;1.20;0.88;;;;;;;;;;5094288;28;20031;-85
2023/08/14 04:46:10;;;;;;;1.88;1.45;;;;;;;;;;5093001;28;20117;-84
2023/08/14 04:48:35;;;;;;;2.70;1.45;;;;;;;;;;5091852;28;20023;-87
2023/08/14 04:51:01;;;;;;;1.58;1.33;;;;;;;;;;5092818;28;20023;-86
2023/08/14 04:53:26;;;;;;;1.70;1.08;;;;;;;;;;5092855;28;20367;-85
2023/08/14 04:55:51;;;;;;;1.05;0.95;;;;;;;;;;5093904;28;20024;-85
2023/08/14 04:58:17;;;;;;;1.52;1.33;;;;;;;;;;5093990;28;20027;-86
2023/08/14 05:00:42;;;;;;;1.33;1.23;;;;;;;;;;5091397;28;20110;-85
2023/08/14 05:03:07;;;;;;;1.25;1.05;;;;;;;;;;5092354;28;20384;-85
2023/08/14 05:05:33;;;;;;;1.75;1.33;;;;;;;;;;5093110;28;20024;-85
2023/08/14 05:07:58;;;;;;;2.05;1.35;;;;;;;;;;5093818;28;20024;-85
2023/08/14 05:10:24;;;;;;;7.05;1.70;;;;;;;;;;5092209;28;20063;-86
2023/08/14 05:12:49;;;;;;;0.95;0.80;;;;;;;;;;5094216;28;20031;-86
2023/08/14 05:15:14;;;;;;;0.98;0.70;;;;;;;;;;5091962;28;20072;-85
2023/08/14 05:17:40;;;;;;;1.33;1.10;;;;;;;;;;5094113;28;20123;-87
2023/08/14 05:20:06;;;;;;;1.80;1.17;;;;;;;;;;5093444;28;20067;-85
2023/08/14 05:22:31;;;;;;;0.98;0.77;;;;;;;;;;5092717;28;20024;-85
2023/08/14 05:24:57;;;;;;;1.02;0.88;;;;;;;;;;5093007;28;20031;-85
2023/08/14 05:27:22;;;;;;;1.60;1.20;;;;;;;;;;5093281;28;20027;-86
2023/08/14 05:29:47;;;;;;;1.80;1.40;;;;;;;;;;5092563;28;20032;-85
2023/08/14 05:32:13;;;;;;;1.25;1.00;;;;;;;;;;5090771;28;20476;-85
2023/08/14 05:34:38;;;;;;;1.33;0.93;;;;;;;;;;5091351;28;20432;-86
2023/08/14 05:37:04;;;;;;;2.10;1.60;;;;;;;;;;5093766;28;20535;-85
2023/08/14 05:39:29;;;;;;;1.25;1.15;;;;;;;;;;5090990;28;20600;-85
2023/08/14 05:41:54;;;;;;;1.48;1.13;;;;;;;;;;5091911;28;20031;-85
2023/08/14 05:44:20;;;;;;;1.80;1.10;;;;;;;;;;5089891;28;20488;-84
2023/08/14 05:46:45;;;;;;;1.98;1.20;;;;;;;;;;5093036;28;20113;-85
2023/08/14 05:49:11;;;;;;;1.10;1.00;;;;;;;;;;5092441;28;20464;-85
2023/08/14 05:51:36;;;;;;;3.17;1.42;;;;;;;;;;5093834;28;20027;-85
2023/08/14 05:54:02;;;;;;;6.63;1.17;;;;;;;;;;5093164;28;20028;-85
2023/08/14 05:56:27;;;;;;;1.23;1.13;;;;;;;;;;5091492;28;20024;-84
2023/08/14 05:58:57;;;;;;;1.10;0.93;;;;;;;;;;5092558;28;20028;-85
2023/08/14 06:01:23;;;;;;;1.25;0.98;;;;;;;;;;5092350;28;20463;-85
2023/08/14 06:03:49;;;;;;;1.30;1.10;;;;;;;;;;5092996;28;20387;-85
2023/08/14 06:06:15;;;;;;;1.40;1.10;;;;;;;;;;5091085;28;20035;-84
2023/08/14 06:08:41;;;;;;;2.03;1.27;;;;;;;;;;5091317;28;20028;-85
2023/08/14 06:11:06;;;;;;;1.77;1.25;;;;;;;;;;5091649;28;20024;-83
2023/08/14 06:13:31;;;;;;;1.55;1.10;;;;;;;;;;5092679;28;21332;-85
2023/08/14 06:15:57;;;;;;;2.40;1.25;;;;;;;;;;5092687;28;20531;-85
2023/08/14 06:18:23;;;;;;;1.65;1.05;;;;;;;;;;5090341;28;20508;-86
2023/08/14 06:20:50;;;;;;;1.40;0.80;;;;;;;;;;5091242;28;20115;-84
2023/08/14 06:23:16;;;;;;;0.55;0.52;;;;;;;;;;5089616;28;20051;-85
2023/08/14 06:25:42;;;;;;;1.05;0.93;;;;;;;;;;5092476;28;20445;-85
2023/08/14 06:28:07;;;;;;;2.10;1.02;;;;;;;;;;5091413;28;20107;-84
2023/08/14 06:30:32;;;;;;;2.42;1.42;;;;;;;;;;5090879;28;20053;-86
2023/08/14 06:32:58;;;;;;;0.68;0.68;;;;;;;;;;5091769;28;20139;-86
2023/08/14 06:35:23;;;;;;;1.63;1.13;;;;;;;;;;5090674;28;20528;-86
2023/08/14 06:37:49;;;;;;;1.10;0.80;;;;;;;;;;5090392;28;20115;-84
2023/08/14 06:40:14;;;;;;;0.98;0.63;;;;;;;;;;5089869;28;20024;-84
2023/08/14 06:42:40;;;;;;;1.48;0.95;;;;;;;;;;5089920;28;20028;-83
2023/08/14 06:45:06;;;;;;;1.55;0.88;;;;;;;;;;5092339;28;20055;-85
2023/08/14 06:47:31;;;;;;;0.70;0.70;;;;;;;;;;5091234;28;20035;-84
2023/08/14 06:49:57;;;;;;;1.58;0.85;;;;;;;;;;5090365;28;20739;-86
2023/08/14 06:52:22;;;;;;;1.08;0.88;;;;;;;;;;5088039;28;20414;-84
2023/08/14 06:54:48;;;;;;;1.75;0.95;;;;;;;;;;5090532;28;20510;-83
2023/08/14 06:57:13;;;;;;;0.95;0.65;;;;;;;;;;5091539;28;20020;-85
2023/08/14 06:59:39;;;;;;;0.93;0.77;;;;;;;;;;5090655;28;20032;-84
2023/08/14 07:02:04;;;;;;;0.75;0.68;;;;;;;;;;5091116;28;20541;-85
2023/08/14 07:04:30;;;;;;;0.80;0.57;;;;;;;;;;5091106;28;20044;-85
2023/08/14 07:06:55;;;;;;;3.05;1.38;;;;;;;;;;5088774;28;20024;-85
2023/08/14 07:09:21;;;;;;;1.15;0.88;;;;;;;;;;5089764;28;20106;-86
2023/08/14 07:11:46;;;;;;;1.60;1.20;;;;;;;;;;5088306;28;20020;-85
2023/08/14 07:14:12;;;;;;;1.13;1.00;;;;;;;;;;5089946;28;20028;-85
2023/08/14 07:16:37;;;;;;;0.80;0.70;;;;;;;;;;5091397;28;20541;-86
2023/08/14 07:19:03;;;;;;;0.70;0.70;;;;;;;;;;5089599;28;20518;-84
2023/08/14 07:21:29;;;;;;;2.08;1.13;;;;;;;;;;5089486;28;20820;-85
2023/08/14 07:23:54;;;;;;;1.48;0.98;;;;;;;;;;5089892;28;20495;-86
2023/08/14 07:26:19;;;;;;;1.23;0.80;;;;;;;;;;5090618;28;20536;-85
2023/08/14 07:28:45;;;;;;;3.05;1.15;;;;;;;;;;5091363;28;20023;-85
2023/08/14 07:31:10;;;;;;;1.02;0.88;;;;;;;;;;5090601;28;20126;-83
2023/08/14 07:33:36;;;;;;;0.88;0.70;;;;;;;;;;5091054;28;20032;-84
2023/08/14 07:36:03;;;;;;;1.27;0.85;;;;;;;;;;5089341;28;20056;-85
2023/08/14 07:38:28;;;;;;;0.82;0.82;;;;;;;;;;5091056;28;20024;-86
2023/08/14 07:40:54;;;;;;;1.52;1.02;;;;;;;;;;5090810;28;20020;-83
2023/08/14 07:43:23;;;;;;;1.02;0.70;;;;;;;;;;5090835;28;20391;-85
2023/08/14 07:45:49;;;;;;;1.15;0.95;;;;;;;;;;5091071;28;20028;-86
2023/08/14 07:48:15;;;;;;;1.33;1.15;;;;;;;;;;5090713;28;20077;-83
2023/08/14 07:50:40;;;;;;;2.17;1.15;;;;;;;;;;5090705;28;20062;-85
2023/08/14 07:53:06;;;;;;;1.20;0.82;;;;;;;;;;5090682;28;20063;-85
2023/08/14 07:55:31;;;;;;;1.08;0.98;;;;;;;;;;5090559;28;20038;-85
2023/08/14 07:57:57;;;;;;;2.83;1.55;;;;;;;;;;5089353;28;20120;-85
2023/08/14 08:00:22;;;;;;;1.40;1.10;;;;;;;;;;5088429;28;20114;-86
2023/08/14 08:02:48;;;;;;;0.45;0.45;;;;;;;;;;5090703;28;20027;-84
2023/08/14 08:05:13;;;;;;;2.83;1.35;;;;;;;;;;5090256;28;20111;-84
2023/08/14 08:07:41;;;;;;;1.83;1.17;;;;;;;;;;5093379;28;20043;-85
2023/08/14 08:10:06;;;;;;;1.17;1.00;;;;;;;;;;5093656;28;20036;-86
2023/08/14 08:12:32;;;;;;;2.05;1.33;;;;;;;;;;5094799;28;20069;-84
2023/08/14 08:14:57;;;;;;;3.63;1.10;;;;;;;;;;5094687;28;20023;-86
2023/08/14 08:17:23;;;;;;;1.42;1.20;;;;;;;;;;5094127;28;20044;-83
2023/08/14 08:19:48;;;;;;;2.90;1.23;;;;;;;;;;5094393;28;20471;-85
2023/08/14 08:22:14;;;;;;;1.42;0.98;;;;;;;;;;5095233;28;20020;-84
2023/08/14 08:24:39;;;;;;;1.77;0.88;;;;;;;;;;5094685;28;20031;-85
2023/08/14 08:27:05;;;;;;;1.70;1.35;;;;;;;;;;5094590;28;20027;-86
2023/08/14 08:29:30;;;;;;;1.35;0.80;;;;;;;;;;5094703;28;20050;-85
2023/08/14 08:31:56;;;;;;;1.20;0.90;;;;;;;;;;5094403;28;20016;-85
2023/08/14 08:34:21;;;;;;;6.05;1.20;;;;;;;;;;5091712;28;20032;-85
2023/08/14 08:36:47;;;;;;;2.05;1.25;;;;;;;;;;5093671;28;20035;-84
2023/08/14 08:39:12;;;;;;;2.25;1.05;;;;;;;;;;5093752;28;20185;-84
2023/08/14 08:41:40;;;;;;;0.75;0.75;;;;;;;;;;5093791;28;20024;-83
2023/08/14 08:44:09;;;;;;;1.63;0.85;;;;;;;;;;5093488;28;20518;-85
2023/08/14 08:46:47;;;;;;;0.65;0.52;;;;;;;;;;5094489;28;20024;-85
2023/08/14 08:49:13;;;;;;;1.67;1.05;;;;;;;;;;5092744;28;20110;-84
2023/08/14 08:51:39;;;;;;;1.55;0.80;;;;;;;;;;5093961;28;20464;-85
2023/08/14 08:54:05;;;;;;;1.35;1.00;;;;;;;;;;5092244;28;20032;-86
2023/08/14 08:56:32;;;;;;;1.70;1.23;;;;;;;;;;5093940;28;20028;-84
2023/08/14 08:58:58;;;;;;;1.13;0.88;;;;;;;;;;5092446;28;20030;-86
2023/08/14 09:01:24;;;;;;;1.55;0.90;;;;;;;;;;5092682;28;20034;-87
2023/08/14 09:03:49;;;;;;;2.05;1.25;;;;;;;;;;5093710;28;21186;-85
2023/08/14 09:06:15;;;;;;;0.73;0.70;;;;;;;;;;5093956;28;20020;-86
2023/08/14 09:08:40;;;;;;;1.00;0.85;;;;;;;;;;5093815;28;20511;-84
2023/08/14 09:11:07;;;;;;;1.55;1.30;;;;;;;;;;5093357;28;20099;-84
2023/08/14 09:13:32;;;;;;;0.98;0.85;;;;;;;;;;5092050;28;20392;-85
2023/08/14 09:15:59;;;;;;;2.30;1.08;;;;;;;;;;5093298;28;20073;-85
2023/08/14 09:18:25;;;;;;;1.27;1.00;;;;;;;;;;5092636;28;20072;-86
2023/08/14 09:20:51;;;;;;;1.88;1.30;;;;;;;;;;5093206;28;20059;-86
2023/08/14 09:23:16;;;;;;;1.92;1.13;;;;;;;;;;5092809;28;20049;-87
2023/08/14 09:25:44;;;;;;;1.30;0.80;;;;;;;;;;5093283;28;20045;-84
2023/08/14 09:28:10;;;;;;;1.00;0.90;;;;;;;;;;5093058;28;20062;-86
2023/08/14 09:30:37;;;;;;;1.80;1.00;;;;;;;;;;5092151;28;20043;-85
2023/08/14 09:33:08;;;;;;;1.20;1.08;;;;;;;;;;5092965;28;20028;-84
2023/08/14 09:35:38;;;;;;;1.17;1.00;;;;;;;;;;5092043;28;20162;-83
2023/08/14 09:38:04;;;;;;;1.85;1.02;;;;;;;;;;5092678;28;20467;-83
2023/08/14 09:40:30;;;;;;;1.35;0.98;;;;;;;;;;5092611;28;20028;-86
2023/08/14 09:42:56;;;;;;;1.90;1.13;;;;;;;;;;5092907;28;20112;-84
2023/08/14 09:45:27;;;;;;;1.50;1.20;;;;;;;;;;5092613;28;20079;-83
2023/08/14 09:47:58;;;;;;;1.02;0.88;;;;;;;;;;5091179;28;20472;-84
2023/08/14 09:50:27;;;;;;;2.10;1.40;;;;;;;;;;5092951;28;20036;-84
2023/08/14 09:52:56;;;;;;;1.33;0.98;;;;;;;;;;5091963;28;20020;-85
2023/08/14 09:55:23;;;;;;;0.77;0.77;;;;;;;;;;5092883;28;20032;-85
2023/08/14 09:57:50;;;;;;;1.67;1.02;;;;;;;;;;5090276;28;20491;-85
2023/08/14 10:00:15;;;;;;;1.30;1.05;;;;;;;;;;5092100;28;20027;-87
2023/08/14 10:02:44;;;;;;;3.25;1.20;;;;;;;;;;5093229;28;20494;-84
2023/08/14 10:05:10;;;;;;;1.40;1.00;;;;;;;;;;5093900;28;20533;-86
2023/08/14 10:07:38;;;;;;;1.58;0.73;;;;;;;;;;5090860;28;20058;-85
2023/08/14 10:10:07;;;;;;;1.73;1.30;;;;;;;;;;5092062;28;20077;-86
2023/08/14 10:12:39;;;;;;;2.33;1.50;;;;;;;;;;5090225;28;20027;-85
2023/08/14 10:15:09;;;;;;;1.33;0.85;;;;;;;;;;5091965;28;20028;-84
2023/08/14 10:17:45;;;;;;;1.10;0.75;;;;;;;;;;5090886;28;20078;-86
2023/08/14 10:20:15;;;;;;;1.02;0.90;;;;;;;;;;5092121;28;20360;-84
2023/08/14 10:22:41;;;;;;;2.13;1.10;;;;;;;;;;5092309;28;20024;-84
2023/08/14 10:25:07;;;;;;;2.15;1.20;;;;;;;;;;5092033;28;20112;-84
2023/08/14 10:27:34;;;;;;;3.35;1.25;;;;;;;;;;5091672;28;20027;-84
2023/08/14 10:30:01;;;;;;;1.58;0.95;;;;;;;;;;5091373;28;20047;-86
2023/08/14 10:32:27;;;;;;;2.03;1.17;;;;;;;;;;5091526;28;20028;-84
2023/08/14 10:34:54;;;;;;;1.40;1.02;;;;;;;;;;5092190;28;20028;-85
2023/08/14 10:37:27;;;;;;;2.05;1.33;;;;;;;;;;5092525;28;20438;-84
2023/08/14 10:40:11;;;;;;;1.25;1.00;;;;;;;;;;5091623;28;20085;-86
2023/08/14 10:42:44;;;;;;;1.70;0.90;;;;;;;;;;5092248;28;20024;-85
2023/08/14 10:45:10;;;;;;;1.08;0.77;;;;;;;;;;5091906;28;20494;-85
2023/08/14 10:47:38;;;;;;;1.52;0.98;;;;;;;;;;5091081;28;20023;-85
2023/08/14 10:50:12;;;;;;;0.85;0.75;;;;;;;;;;5090896;28;20379;-84
2023/08/14 10:52:38;;;;;;;1.58;1.13;;;;;;;;;;5091221;28;20062;-84
2023/08/14 10:55:04;;;;;;;2.28;1.35;;;;;;;;;;5091603;28;20510;-84
2023/08/14 10:57:29;;;;;;;2.13;1.23;;;;;;;;;;5091757;28;20089;-84
2023/08/14 10:59:56;;;;;;;1.90;0.98;;;;;;;;;;5090256;28;20162;-85
2023/08/14 11:02:22;;;;;;;0.93;0.82;;;;;;;;;;5091530;28;20472;-85
2023/08/14 11:04:57;;;;;;;1.48;1.17;;;;;;;;;;5091022;28;20034;-84
2023/08/14 11:07:26;;;;;;;1.75;1.38;;;;;;;;;;5091075;28;20133;-86
2023/08/14 11:09:51;;;;;;;1.73;1.23;;;;;;;;;;5090433;28;20125;-84
2023/08/14 11:12:17;;;;;;;2.15;1.65;;;;;;;;;;5090991;28;20028;-83
2023/08/14 11:14:42;;;;;;;2.40;1.40;;;;;;;;;;5091931;28;20121;-85
2023/08/14 11:17:10;;;;;;;1.92;1.10;;;;;;;;;;5091289;28;20027;-87
2023/08/14 11:19:37;;;;;;;1.50;1.08;;;;;;;;;;5089383;28;20389;-85
2023/08/14 11:22:03;;;;;;;1.67;1.10;;;;;;;;;;5090550;28;20031;-85
2023/08/14 11:24:29;;;;;;;1.23;0.88;;;;;;;;;;5091047;28;20043;-86
2023/08/14 11:26:57;;;;;;;2.10;1.45;;;;;;;;;;5089532;28;20016;-85
2023/08/14 11:29:23;;;;;;;1.33;1.05;;;;;;;;;;5090047;28;20061;-84
2023/08/14 11:31:48;;;;;;;1.83;1.20;;;;;;;;;;5090577;28;20384;-84
2023/08/14 11:34:14;;;;;;;2.47;1.25;;;;;;;;;;5090723;28;20020;-84
2023/08/14 11:36:56;;;;;;;1.75;1.05;;;;;;;;;;5088849;28;20526;-85
2023/08/14 11:39:22;;;;;;;2.20;1.00;;;;;;;;;;5090539;28;20031;-85
2023/08/14 11:41:47;;;;;;;2.22;1.27;;;;;;;;;;5089889;28;20031;-85
2023/08/14 11:44:12;;;;;;;1.35;1.05;;;;;;;;;;5090369;28;20376;-83
2023/08/14 11:46:38;;;;;;;1.33;0.95;;;;;;;;;;5091603;28;20106;-86
2023/08/14 11:49:04;;;;;;;1.80;1.10;;;;;;;;;;5089434;28;20036;-85
2023/08/14 11:51:31;;;;;;;2.60;1.05;;;;;;;;;;5090414;28;20568;-83
2023/08/14 11:53:59;;;;;;;1.23;0.80;;;;;;;;;;5090608;28;20028;-85
2023/08/14 11:56:25;;;;;;;1.85;1.27;;;;;;;;;;5091089;28;20498;-86
2023/08/14 11:58:52;;;;;;;1.38;1.00;;;;;;;;;;5087940;28;20271;-84
2023/08/14 12:01:17;;;;;;;1.85;1.33;;;;;;;;;;5089187;28;20054;-84
2023/08/14 12:03:42;;;;;;;2.63;1.35;;;;;;;;;;5089825;28;20024;-84
2023/08/14 12:06:08;;;;;;;1.52;1.30;;;;;;;;;;5091128;28;20020;-85
2023/08/14 12:08:34;;;;;;;2.05;1.00;;;;;;;;;;5091032;28;20024;-85
2023/08/14 12:10:59;;;;;;;2.33;1.40;;;;;;;;;;5090511;28;20031;-87
2023/08/14 12:13:25;;;;;;;2.03;1.48;;;;;;;;;;5090887;28;20181;-86
2023/08/14 12:15:50;;;;;;;2.47;1.65;;;;;;;;;;5090688;28;20494;-85
2023/08/14 12:18:24;;;;;;;2.00;1.25;;;;;;;;;;5090327;28;20066;-86
2023/08/14 12:20:54;;;;;;;2.05;1.23;;;;;;;;;;5088681;28;20028;-85
2023/08/14 12:23:24;;;;;;;1.45;1.00;;;;;;;;;;5090157;28;20799;-84
2023/08/14 12:25:51;;;;;;;1.10;0.90;;;;;;;;;;5090935;28;20063;-84
2023/08/14 12:28:16;;;;;;;1.10;0.90;;;;;;;;;;5090224;28;20031;-85
2023/08/14 12:30:42;;;;;;;2.70;1.60;;;;;;;;;;5090195;28;20024;-86
2023/08/14 12:33:08;;;;;;;1.33;1.00;;;;;;;;;;5090619;28;20024;-85
2023/08/14 12:35:35;;;;;;;2.00;1.65;;;;;;;;;;5089124;28;20490;-86
2023/08/14 12:38:00;;;;;;;1.35;1.17;;;;;;;;;;5090675;28;20032;-84
2023/08/14 12:40:27;;;;;;;1.48;1.00;;;;;;;;;;5089475;28;20104;-85
2023/08/14 12:42:52;;;;;;;1.90;1.20;;;;;;;;;;5089334;28;20028;-86
2023/08/14 12:45:18;;;;;;;1.33;1.00;;;;;;;;;;5090172;28;20432;-84
2023/08/14 12:47:43;;;;;;;1.63;1.25;;;;;;;;;;5090489;28;20024;-84
2023/08/14 12:50:09;;;;;;;1.63;0.90;;;;;;;;;;5090656;28;20024;-85
2023/08/14 12:52:35;;;;;;;1.48;0.95;;;;;;;;;;5089566;28;20016;-86
2023/08/14 12:55:00;;;;;;;2.10;1.02;;;;;;;;;;5091342;28;20456;-85
2023/08/14 12:57:26;;;;;;;3.38;1.23;;;;;;;;;;5092611;28;20051;-84
2023/08/14 12:59:51;;;;;;;1.83;1.02;;;;;;;;;;5094184;28;20032;-87
2023/08/14 13:02:16;;;;;;;1.00;0.75;;;;;;;;;;5093251;28;20115;-85
2023/08/14 13:04:42;;;;;;;4.28;1.35;;;;;;;;;;5093796;28;20085;-84
2023/08/14 13:07:08;;;;;;;2.25;1.55;;;;;;;;;;5093334;28;20459;-84
2023/08/14 13:09:33;;;;;;;2.13;0.95;;;;;;;;;;5092809;28;20025;-84
2023/08/14 13:11:59;;;;;;;2.67;0.95;;;;;;;;;;5093469;28;20471;-85
2023/08/14 13:14:24;;;;;;;1.25;0.93;;;;;;;;;;5093508;28;20032;-85
2023/08/14 13:16:49;;;;;;;1.55;0.90;;;;;;;;;;5091939;28;20054;-84
2023/08/14 13:19:15;;;;;;;1.92;1.08;;;;;;;;;;5092071;28;20040;-84
2023/08/14 13:21:40;;;;;;;1.33;1.08;;;;;;;;;;5093018;28;20047;-85
2023/08/14 13:24:06;;;;;;;1.40;1.08;;;;;;;;;;5094005;28;20146;-84
2023/08/14 13:26:32;;;;;;;2.65;1.85;;;;;;;;;;5093834;28;20480;-85
2023/08/14 13:28:57;;;;;;;1.75;1.27;;;;;;;;;;5093497;28;20024;-86
2023/08/14 13:31:22;;;;;;;2.10;1.20;;;;;;;;;;5093200;28;20035;-86
2023/08/14 13:33:48;;;;;;;1.38;1.00;;;;;;;;;;5092460;28;20024;-86
2023/08/14 13:36:13;;;;;;;1.17;0.90;;;;;;;;;;5091923;28;20032;-84
2023/08/14 13:38:39;;;;;;;2.00;1.20;;;;;;;;;;5093150;28;20056;-85
2023/08/14 13:41:05;;;;;;;2.00;1.08;;;;;;;;;;5090184;28;20031;-86
2023/08/14 13:43:30;;;;;;;1.25;0.80;;;;;;;;;;5093224;28;20024;-84
2023/08/14 13:45:55;;;;;;;1.08;0.82;;;;;;;;;;5092337;28;21360;-83
2023/08/14 13:48:21;;;;;;;1.40;1.08;;;;;;;;;;5092316;28;20059;-85
2023/08/14 13:50:47;;;;;;;1.27;1.02;;;;;;;;;;5092937;28;20027;-86
2023/08/14 13:53:12;;;;;;;1.23;1.13;;;;;;;;;;5092704;28;20450;-86
2023/08/14 13:55:42;;;;;;;1.92;1.27;;;;;;;;;;5092147;28;20027;-86
2023/08/14 13:58:07;;;;;;;1.90;1.38;;;;;;;;;;5091537;28;20074;-83
2023/08/14 14:00:33;;;;;;;1.30;0.80;;;;;;;;;;5092726;28;20042;-84
2023/08/14 14:02:58;;;;;;;1.52;1.02;;;;;;;;;;5092614;28;20055;-82
2023/08/14 14:05:24;;;;;;;0.93;0.85;;;;;;;;;;5089387;28;20181;-82
2023/08/14 14:07:49;;;;;;;1.75;1.10;;;;;;;;;;5092491;28;20035;-82
2023/08/14 14:10:15;;;;;;;1.83;1.08;;;;;;;;;;5092657;28;20070;-85
2023/08/14 14:12:40;;;;;;;2.47;1.15;;;;;;;;;;5092730;28;20443;-85
2023/08/14 14:15:06;;;;;;;1.60;1.23;;;;;;;;;;5090555;28;20044;-85
2023/08/14 14:17:31;;;;;;;1.27;0.93;;;;;;;;;;5092505;28;20403;-85
2023/08/14 14:19:56;;;;;;;0.90;0.80;;;;;;;;;;5090776;28;20031;-84
2023/08/14 14:22:22;;;;;;;2.58;0.75;;;;;;;;;;5090815;28;20024;-85
2023/08/14 14:24:47;;;;;;;1.83;0.90;;;;;;;;;;5092292;28;20422;-82
2023/08/14 14:27:13;;;;;;;1.67;1.00;;;;;;;;;;5092371;28;20020;-83
2023/08/14 14:29:38;;;;;;;1.65;1.55;;;;;;;;;;5091007;28;20110;-86
2023/08/14 14:32:04;;;;;;;1.63;1.25;;;;;;;;;;5091784;28;20036;-84
2023/08/14 14:34:29;;;;;;;2.63;1.48;;;;;;;;;;5091597;28;20135;-84
2023/08/14 14:36:55;;;;;;;1.65;1.00;;;;;;;;;;5092609;28;20020;-85
2023/08/14 14:39:20;;;;;;;1.50;1.08;;;;;;;;;;5090892;28;20081;-83